Anza Borrego Desert Research Center, California Weather observations

Data are for 10 minute period ending at time listed.
 Day   Time   Solar   Ave.   Ave.  Ave.  Vector  Max.   Baro.   Total    
  of    of     Rad.   Air    Rel.  Wind   Wind   Wind  Press.  Precip.   
Year   Day            Temp.  Hum.  Speed  Dir.   Gust                    
2014   (PST)  Kw/m2    F      %     mph   deg.    mph    mb.     in.     
-------------------------------------------------------------------------
 108   11:10   1.06   81.6    26    3.3    66     7.4   502.0    0.00 
 108   11:20   1.05   82.8    24    4.0    64     9.5   502.0    0.00 
 108   11:30   1.01   83.2    27    4.3    95    10.7   502.0    0.00 
 108   11:40   0.56   81.5    29    7.9   106    22.5   502.1    0.00 
 108   11:50   0.73   81.1    29    7.3   119    13.6   502.0    0.00 
 108   12:00   0.66   81.4    28    8.5   121    16.3   502.0    0.00 
 108   12:10   0.73   82.1    27    7.7   152    13.4   502.0    0.00 
 108   12:20   0.66   81.5    26    3.9   165     9.4   502.0    0.00 
 108   12:30   0.77   82.5    24    5.4   140     9.7   502.0    0.00 
 108   12:40   0.93   83.0    21    3.3   199     7.6   502.0    0.00 
 108   12:50   0.95   84.7    18    4.3   190     9.3   502.1    0.00 
 108   13:00   0.87   85.0    19    6.3   152    15.8   502.1    0.00 
 108   13:10   0.89   84.3    20    7.0   109    16.7   502.1    0.00 
 108   13:20   0.71   84.0    20    6.8   111    12.6   502.1    0.00 
 108   13:30   0.45   82.9    22    6.5   110    14.7   502.1    0.00 
 108   13:40   0.38   82.3    24   10.2    98    16.1   502.1    0.00 
 108   13:50   0.35   81.4    25    9.1    93    13.7   502.1    0.00 
 108   14:00   0.35   82.0    24    9.8   112    17.2   502.0    0.00 
 108   14:10   0.28   81.4    25    8.9   136    16.6   502.0    0.00 
 108   14:20   0.43   81.7    25    7.2   117    14.8   502.0    0.00 
 108   14:30   0.34   82.0    26    7.1   129    15.5   502.0    0.00 
 108   14:40   0.24   81.5    26    6.3   122    10.2   502.0    0.00 
 108   14:50   0.20   80.9    27    4.2   142     7.6   502.0    0.00 
 108   15:00   0.17   81.1    27    4.8   141     9.5   502.0    0.00 
 108   15:10   0.15   80.6    27    7.4    98    12.5   502.0    0.00 
 108   15:20   0.12   80.4    27    6.3    82    10.9   502.0    0.00 
 108   15:30   0.10   80.0    26    8.9   334    15.6   502.0    0.00 
 108   15:40   0.08   79.5    26   10.6   322    17.4   502.0    0.00 
 108   15:50   0.08   78.8    28   11.0   280    18.0   502.0    0.00 
 108   16:00   0.08   77.4    32   15.4   287    21.5   502.0    0.00 
 108   16:10   0.08   75.3    35   16.9   305    26.5   502.0    0.00 
 108   16:20   0.10   75.2    32   15.2   312    21.1   502.0    0.00 
 108   16:30   0.10   75.7    31   13.0   314    20.2   501.9    0.00 
 108   16:40   0.10   76.3    31    9.7   308    15.5   501.9    0.00 
 108   16:50   0.09   76.8    31    8.3   302    13.1   501.9    0.00 
 108   17:00   0.08   76.8    31    8.6   308    15.6   501.9    0.00 
 108   17:10   0.08   76.6    31    9.7   313    15.5   501.9    0.00 
 108   17:20   0.07   77.0    30    7.9   308    11.5   501.9    0.00 
 108   17:30   0.06   77.0    30    7.7   306    11.3   501.9    0.00 
 108   17:40   0.04   76.9    30    6.4   305     8.9   501.9    0.00 
 108   17:50   0.04   76.9    30    6.7   320     9.8   501.9    0.00 
 108   18:00   0.03   76.6    30    7.5   319    10.6   501.8    0.00 
 108   18:10   0.02   76.5    31    5.2   340     7.7   501.8    0.00 
 108   18:20   0.00   76.1    31    5.9   319    11.0   501.8    0.00 
 108   18:30   0.00   76.1    31    5.9   327     9.5   501.8    0.00 
 108   18:40   0.00   76.1    30    5.7   314     9.6   501.8    0.00 
 108   18:50   0.00   76.1    30    6.0   304     8.4   501.8    0.00 
 108   19:00   0.00   75.7    32    6.2   298    11.0   501.8    0.00 
 108   19:10   0.00   75.2    33    6.5   291    11.0   501.8    0.00 
 108   19:20   0.00   75.2    33    6.5   307     9.1   501.8    0.00 
 108   19:30   0.00   74.9    33    5.0   304     9.4   501.8    0.00 
 108   19:40   0.00   74.5    34    5.0   300     7.5   501.8    0.00 
 108   19:50   0.00   74.9    32    4.9   303     8.0   501.8    0.00 
 108   20:00   0.00   74.3    33    3.1   294     4.5   501.8    0.00 
 108   20:10   0.00   72.6    34    2.0    38     3.6   501.8    0.00 
 108   20:20   0.00   72.4    35    2.7   346     5.1   501.8    0.00 
 108   20:30   0.00   72.0    35    3.0   305     6.3   501.8    0.00 
 108   20:40   0.00   71.3    36    6.3   268     7.8   501.8    0.00 
 108   20:50   0.00   71.3    36    3.7   255     7.1   501.8    0.00 
 108   21:00   0.00   70.1    37    4.0   257     5.6   501.8    0.00 
 108   21:10   0.00   70.4    36    3.9   253     5.4   501.8    0.00 
 108   21:20   0.00   70.2    36    1.5   264     3.9   501.8    0.00 
 108   21:30   0.00   70.4    37    2.3   272     3.5   501.8    0.00 
 108   21:40   0.00   70.6    40    3.2   317     5.5   501.8    0.00 
 108   21:50   0.00   71.0    41    4.2   341     6.7   501.8    0.00 
 108   22:00   0.00   72.2    41    5.7   339     8.3   501.8    0.00 
 108   22:10   0.00   71.9    41    4.0   347     6.7   501.8    0.00 
 108   22:20   0.00   71.8    41    4.0   339     6.1   501.8    0.00 
 108   22:30   0.00   71.8    41    3.8   326     6.4   501.8    0.00 
 108   22:40   0.00   71.9    41    4.2   332     6.0   501.8    0.00 
 108   22:50   0.00   71.8    42    4.2   333     6.6   501.8    0.00 
 108   23:00   0.00   72.0    41    3.3   330     6.2   501.8    0.00 
 108   23:10   0.00   70.5    43    1.2   352     3.5   501.8    0.00 
 108   23:20   0.00   68.5    45    1.4   190     2.9   501.8    0.00 
 108   23:30   0.00   68.3    46    2.0   214     2.9   501.8    0.00 
 108   23:40   0.00   68.5    46    2.4   256     3.9   501.8    0.00 
 108   23:50   0.00   67.7    47    3.2   251     4.9   501.8    0.00 
 109    0:00   0.00   67.1    49    3.5   259     4.6   501.8    0.00 
 109    0:10   0.00   67.7    48    3.3   283     5.8   501.8    0.00 
 109    0:20   0.00   69.3    47    3.3   240     5.7   501.8    0.00 
 109    0:30   0.00   68.8    47    4.1   244     5.7   501.8    0.00 
 109    0:40   0.00   68.1    48    3.8   262     5.3   501.8    0.00 
 109    0:50   0.00   67.9    48    4.2   257     5.2   501.8    0.00 
 109    1:00   0.00   66.3    50    5.1   226     6.4   501.8    0.00 
 109    1:10   0.00   65.6    51    7.1   233     8.2   501.8    0.00 
 109    1:20   0.00   66.4    50    6.1   236     8.3   501.8    0.00 
 109    1:30   0.00   65.9    50    5.7   259     6.9   501.8    0.00 
 109    1:40   0.00   68.0    46    4.6   253     6.6   501.8    0.00 
 109    1:50   0.00   68.5    46    4.0   254     6.4   501.8    0.00 
 109    2:00   0.00   69.9    44    4.2   299     7.3   501.8    0.00 
 109    2:10   0.00   69.2    45    3.6   274     7.5   501.8    0.00 
 109    2:20   0.00   66.7    49    2.2    80     3.7   501.8    0.00 
 109    2:30   0.00   66.7    50    0.8    30     2.0   501.8    0.00 
 109    2:40   0.00   65.2    51    1.7   187     2.9   501.8    0.00 
 109    2:50   0.00   64.1    52    2.4   168     3.3   501.8    0.00 
 109    3:00   0.00   64.5    52    3.0   214     5.7   501.8    0.00 
 109    3:10   0.00   64.8    51    5.6   221     7.1   501.8    0.00 
 109    3:20   0.00   65.8    50    5.4   217     7.2   501.8    0.00 
 109    3:30   0.00   63.7    52    6.0   236     7.2   501.8    0.00 
 109    3:40   0.00   63.0    52    4.2   206     6.8   501.8    0.00 
 109    3:50   0.00   62.1    53    2.7   206     3.7   501.8    0.00 
 109    4:00   0.00   64.1    51    3.7   178     5.3   501.8    0.00 
 109    4:10   0.00   64.8    51    3.1   321     5.5   501.8    0.00 
 109    4:20   0.00   62.5    56    2.3   311     4.1   501.8    0.00 
 109    4:30   0.00   62.4    55    2.3   292     3.5   501.8    0.00 
 109    4:40   0.00   61.2    55    2.5   270     3.4   501.8    0.00 
 109    4:50   0.00   61.1    54    3.0   258     4.1   501.8    0.00 
 109    5:00   0.00   60.1    55    3.7   257     5.9   501.8    0.00 
 109    5:10   0.00   60.6    54    5.4   256     6.6   501.8    0.00 
 109    5:20   0.00   61.9    52    3.6   264     4.2   501.8    0.00 
 109    5:30   0.01   61.3    53    1.8   276     3.4   501.8    0.00 
 109    5:40   0.03   62.7    51    1.4   264     2.3   501.8    0.00 
 109    5:50   0.06   63.6    50    1.8    20     2.9   501.8    0.00 
 109    6:00   0.08   66.1    49    1.0    10     2.8   501.8    0.00 
 109    6:10   0.11   69.1    45    0.3   216     1.5   501.8    0.00 
 109    6:20   0.14   70.1    44    1.8   212     2.4   501.8    0.00 
 109    6:30   0.17   70.7    43    1.7   216     2.9   501.8    0.00 
 109    6:40   0.21   72.5    41    1.3   238     1.8   501.8    0.00 
 109    6:50   0.24   74.4    39    0.7   257     1.8   501.8    0.00 
 109    7:00   0.28   76.2    37    1.4   349     2.7   501.8    0.00 
 109    7:10   0.31   74.9    38    3.0     9     4.3   501.8    0.00 
 109    7:20   0.35   75.3    38    2.2    14     3.7   501.8    0.00 
 109    7:30   0.39   76.8    36    1.3    73     3.3   501.8    0.00 
 109    7:40   0.42   76.7    36    1.9    64     3.9   501.8    0.00 
 109    7:50   0.46   77.8    35    1.5    90     3.2   501.8    0.00 
 109    8:00   0.49   77.8    35    2.6   138     4.4   501.8    0.00 
 109    8:10   0.53   78.6    33    2.2   109     5.8   501.8    0.00 
 109    8:20   0.56   78.1    33    2.9    99     6.1   501.8    0.00 
 109    8:30   0.60   78.6    32    3.1    92     6.1   501.9    0.00 
 109    8:40   0.63   78.8    32    3.6   118     7.3   502.0    0.00 
 109    8:50   0.66   78.8    32    5.3   116     9.6   502.0    0.00 
 109    9:00   0.69   79.7    31    3.5   103     7.4   502.0    0.00 
 109    9:10   0.72   79.8    31    6.1   124    10.8   502.0    0.00 
 109    9:20   0.74   79.9    31    5.8   130    11.6   502.0    0.00 
 109    9:30   0.77   80.3    31    5.4   133     9.7   502.0    0.00 
 109    9:40   0.80   81.9    30    2.6    85     7.8   502.0    0.00 
 109    9:50   0.81   81.4    30    4.9    96     7.9   502.0    0.00 
 109   10:00   0.84   81.8    30    5.9    81    10.7   502.0    0.00 
 109   10:10   0.85   81.7    30    5.5    91    11.1   502.0    0.00 
 109   10:20   0.87   82.3    29    6.4   109     9.7   502.0    0.00 
 109   10:30   0.89   82.8    28    5.3    74     9.9   502.0    0.00 
 109   10:40   0.90   83.4    27    6.1   157     9.2   502.0    0.00 
 109   10:50   0.91   84.3    26    3.9   163     9.1   502.0    0.00 
 109   11:00   0.92   84.9    25    4.5   117    11.4   502.1    0.00 

Return to Anza Borrego Desert Research Center graphs page.


Western Regional Climate Center,wrcc@dri.edu